sensor_id;sensor_type;location;lat;lon;timestamp;P1;durP1;ratioP1;P2;durP2;ratioP2
55364;SDS011;41245;45.384;20.390;2023-04-03T00:00:28;8.40;;;6.85;;
55364;SDS011;41245;45.384;20.390;2023-04-03T00:02:54;8.35;;;6.53;;
55364;SDS011;41245;45.384;20.390;2023-04-03T00:05:20;9.05;;;6.60;;
55364;SDS011;41245;45.384;20.390;2023-04-03T00:07:45;10.25;;;7.00;;
55364;SDS011;41245;45.384;20.390;2023-04-03T00:10:11;10.07;;;6.97;;
55364;SDS011;41245;45.384;20.390;2023-04-03T00:12:37;12.98;;;6.20;;
55364;SDS011;41245;45.384;20.390;2023-04-03T00:15:03;7.97;;;6.60;;
55364;SDS011;41245;45.384;20.390;2023-04-03T00:17:29;8.55;;;6.40;;
55364;SDS011;41245;45.384;20.390;2023-04-03T00:19:54;11.35;;;6.85;;
55364;SDS011;41245;45.384;20.390;2023-04-03T00:22:20;8.63;;;6.68;;
55364;SDS011;41245;45.384;20.390;2023-04-03T00:24:46;9.85;;;6.43;;
55364;SDS011;41245;45.384;20.390;2023-04-03T00:27:11;8.57;;;6.57;;
55364;SDS011;41245;45.384;20.390;2023-04-03T00:29:37;9.20;;;6.57;;
55364;SDS011;41245;45.384;20.390;2023-04-03T00:32:02;9.77;;;6.75;;
55364;SDS011;41245;45.384;20.390;2023-04-03T00:34:28;9.88;;;6.45;;
55364;SDS011;41245;45.384;20.390;2023-04-03T00:36:54;9.48;;;7.00;;
55364;SDS011;41245;45.384;20.390;2023-04-03T00:39:20;8.15;;;6.90;;
55364;SDS011;41245;45.384;20.390;2023-04-03T00:41:45;10.77;;;7.63;;
55364;SDS011;41245;45.384;20.390;2023-04-03T00:44:22;11.32;;;7.32;;
55364;SDS011;41245;45.384;20.390;2023-04-03T00:47:10;10.90;;;7.05;;
55364;SDS011;41245;45.384;20.390;2023-04-03T00:49:38;10.85;;;7.45;;
55364;SDS011;41245;45.384;20.390;2023-04-03T00:52:05;10.68;;;6.97;;
55364;SDS011;41245;45.384;20.390;2023-04-03T00:54:33;12.68;;;6.97;;
55364;SDS011;41245;45.384;20.390;2023-04-03T00:57:01;8.20;;;5.97;;
55364;SDS011;41245;45.384;20.390;2023-04-03T00:59:30;9.75;;;6.80;;
55364;SDS011;41245;45.384;20.390;2023-04-03T01:02:00;11.60;;;7.25;;
55364;SDS011;41245;45.384;20.390;2023-04-03T01:04:27;9.70;;;7.00;;
55364;SDS011;41245;45.384;20.390;2023-04-03T01:06:58;12.35;;;7.50;;
55364;SDS011;41245;45.384;20.390;2023-04-03T01:09:29;8.15;;;6.32;;
55364;SDS011;41245;45.384;20.390;2023-04-03T01:12:15;10.43;;;6.82;;
55364;SDS011;41245;45.384;20.390;2023-04-03T01:14:49;7.82;;;6.22;;
55364;SDS011;41245;45.384;20.390;2023-04-03T01:20:44;7.32;;;5.80;;
55364;SDS011;41245;45.384;20.390;2023-04-03T01:25:35;8.32;;;6.25;;
55364;SDS011;41245;45.384;20.390;2023-04-03T01:28:12;10.50;;;5.55;;
55364;SDS011;41245;45.384;20.390;2023-04-03T01:33:43;9.27;;;5.85;;
55364;SDS011;41245;45.384;20.390;2023-04-03T01:36:10;8.77;;;6.32;;
55364;SDS011;41245;45.384;20.390;2023-04-03T01:38:38;12.50;;;6.83;;
55364;SDS011;41245;45.384;20.390;2023-04-03T01:41:04;13.88;;;8.00;;
55364;SDS011;41245;45.384;20.390;2023-04-03T01:43:29;10.73;;;7.10;;
55364;SDS011;41245;45.384;20.390;2023-04-03T01:45:55;11.45;;;5.57;;
55364;SDS011;41245;45.384;20.390;2023-04-03T01:48:21;14.07;;;6.60;;
55364;SDS011;41245;45.384;20.390;2023-04-03T01:50:46;13.38;;;7.00;;
55364;SDS011;41245;45.384;20.390;2023-04-03T01:53:12;10.55;;;6.75;;
55364;SDS011;41245;45.384;20.390;2023-04-03T01:55:38;11.05;;;6.72;;
55364;SDS011;41245;45.384;20.390;2023-04-03T01:58:03;12.18;;;7.03;;
55364;SDS011;41245;45.384;20.390;2023-04-03T02:00:29;12.77;;;7.75;;
55364;SDS011;41245;45.384;20.390;2023-04-03T02:02:55;13.32;;;7.40;;
55364;SDS011;41245;45.384;20.390;2023-04-03T02:05:21;8.73;;;5.60;;
55364;SDS011;41245;45.384;20.390;2023-04-03T02:07:47;10.13;;;6.45;;
55364;SDS011;41245;45.384;20.390;2023-04-03T02:10:13;11.57;;;6.80;;
55364;SDS011;41245;45.384;20.390;2023-04-03T02:12:39;14.85;;;8.35;;
55364;SDS011;41245;45.384;20.390;2023-04-03T02:15:04;14.82;;;8.63;;
55364;SDS011;41245;45.384;20.390;2023-04-03T02:17:31;15.50;;;8.95;;
55364;SDS011;41245;45.384;20.390;2023-04-03T02:19:56;14.02;;;8.40;;
55364;SDS011;41245;45.384;20.390;2023-04-03T02:22:22;12.70;;;7.22;;
55364;SDS011;41245;45.384;20.390;2023-04-03T02:24:47;12.35;;;7.75;;
55364;SDS011;41245;45.384;20.390;2023-04-03T02:27:13;12.82;;;6.43;;
55364;SDS011;41245;45.384;20.390;2023-04-03T02:29:39;13.43;;;7.53;;
55364;SDS011;41245;45.384;20.390;2023-04-03T02:32:05;12.43;;;6.65;;
55364;SDS011;41245;45.384;20.390;2023-04-03T02:34:30;12.43;;;7.47;;
55364;SDS011;41245;45.384;20.390;2023-04-03T02:36:56;9.75;;;6.05;;
55364;SDS011;41245;45.384;20.390;2023-04-03T02:39:22;10.32;;;6.43;;
55364;SDS011;41245;45.384;20.390;2023-04-03T02:41:47;9.52;;;5.65;;
55364;SDS011;41245;45.384;20.390;2023-04-03T02:44:13;8.35;;;5.45;;
55364;SDS011;41245;45.384;20.390;2023-04-03T02:46:39;12.05;;;6.28;;
55364;SDS011;41245;45.384;20.390;2023-04-03T02:49:04;9.35;;;5.88;;
55364;SDS011;41245;45.384;20.390;2023-04-03T02:51:30;8.60;;;5.40;;
55364;SDS011;41245;45.384;20.390;2023-04-03T02:53:56;7.47;;;5.32;;
55364;SDS011;41245;45.384;20.390;2023-04-03T02:56:22;12.07;;;5.75;;
55364;SDS011;41245;45.384;20.390;2023-04-03T02:58:47;8.25;;;4.78;;
55364;SDS011;41245;45.384;20.390;2023-04-03T03:01:13;10.18;;;5.90;;
55364;SDS011;41245;45.384;20.390;2023-04-03T03:03:39;10.20;;;5.97;;
55364;SDS011;41245;45.384;20.390;2023-04-03T03:06:06;12.90;;;5.70;;
55364;SDS011;41245;45.384;20.390;2023-04-03T03:08:33;10.40;;;5.88;;
55364;SDS011;41245;45.384;20.390;2023-04-03T03:11:00;9.45;;;5.55;;
55364;SDS011;41245;45.384;20.390;2023-04-03T03:13:26;12.23;;;6.03;;
55364;SDS011;41245;45.384;20.390;2023-04-03T03:15:52;12.10;;;7.00;;
55364;SDS011;41245;45.384;20.390;2023-04-03T03:18:17;14.45;;;6.32;;
55364;SDS011;41245;45.384;20.390;2023-04-03T03:20:43;11.85;;;6.35;;
55364;SDS011;41245;45.384;20.390;2023-04-03T03:23:09;8.82;;;5.18;;
55364;SDS011;41245;45.384;20.390;2023-04-03T03:25:41;15.60;;;8.55;;
55364;SDS011;41245;45.384;20.390;2023-04-03T03:28:07;17.35;;;8.43;;
55364;SDS011;41245;45.384;20.390;2023-04-03T03:30:33;15.73;;;8.65;;
55364;SDS011;41245;45.384;20.390;2023-04-03T03:32:59;18.33;;;8.45;;
55364;SDS011;41245;45.384;20.390;2023-04-03T03:35:25;9.20;;;6.22;;
55364;SDS011;41245;45.384;20.390;2023-04-03T03:37:50;9.93;;;4.32;;
55364;SDS011;41245;45.384;20.390;2023-04-03T03:40:16;8.85;;;4.50;;
55364;SDS011;41245;45.384;20.390;2023-04-03T03:42:42;9.30;;;3.92;;
55364;SDS011;41245;45.384;20.390;2023-04-03T03:45:08;8.32;;;4.60;;
55364;SDS011;41245;45.384;20.390;2023-04-03T03:47:34;7.95;;;4.25;;
55364;SDS011;41245;45.384;20.390;2023-04-03T03:50:00;7.60;;;4.95;;
55364;SDS011;41245;45.384;20.390;2023-04-03T03:52:26;9.32;;;3.50;;
55364;SDS011;41245;45.384;20.390;2023-04-03T03:54:52;6.90;;;4.38;;
55364;SDS011;41245;45.384;20.390;2023-04-03T03:57:17;5.25;;;3.50;;
55364;SDS011;41245;45.384;20.390;2023-04-03T03:59:43;6.93;;;4.57;;
55364;SDS011;41245;45.384;20.390;2023-04-03T04:02:09;5.50;;;3.92;;
55364;SDS011;41245;45.384;20.390;2023-04-03T04:04:36;6.65;;;3.58;;
55364;SDS011;41245;45.384;20.390;2023-04-03T04:07:02;5.45;;;3.20;;
55364;SDS011;41245;45.384;20.390;2023-04-03T04:09:28;10.05;;;6.28;;
55364;SDS011;41245;45.384;20.390;2023-04-03T04:11:54;11.90;;;6.28;;
55364;SDS011;41245;45.384;20.390;2023-04-03T04:14:20;9.63;;;4.57;;
55364;SDS011;41245;45.384;20.390;2023-04-03T04:16:45;13.73;;;5.50;;
55364;SDS011;41245;45.384;20.390;2023-04-03T04:19:12;12.32;;;6.45;;
55364;SDS011;41245;45.384;20.390;2023-04-03T04:21:38;13.07;;;5.50;;
55364;SDS011;41245;45.384;20.390;2023-04-03T04:24:04;17.73;;;8.40;;
55364;SDS011;41245;45.384;20.390;2023-04-03T04:26:30;8.88;;;5.13;;
55364;SDS011;41245;45.384;20.390;2023-04-03T04:28:56;16.42;;;8.20;;
55364;SDS011;41245;45.384;20.390;2023-04-03T04:31:22;12.75;;;6.53;;
55364;SDS011;41245;45.384;20.390;2023-04-03T04:33:47;7.20;;;4.63;;
55364;SDS011;41245;45.384;20.390;2023-04-03T04:36:13;10.50;;;5.22;;
55364;SDS011;41245;45.384;20.390;2023-04-03T04:38:40;13.93;;;7.45;;
55364;SDS011;41245;45.384;20.390;2023-04-03T04:41:06;12.82;;;6.28;;
55364;SDS011;41245;45.384;20.390;2023-04-03T04:43:32;14.82;;;4.03;;
55364;SDS011;41245;45.384;20.390;2023-04-03T04:46:07;5.57;;;3.72;;
55364;SDS011;41245;45.384;20.390;2023-04-03T04:48:36;11.60;;;3.88;;
55364;SDS011;41245;45.384;20.390;2023-04-03T04:51:02;3.53;;;3.03;;
55364;SDS011;41245;45.384;20.390;2023-04-03T04:53:28;4.40;;;3.33;;
55364;SDS011;41245;45.384;20.390;2023-04-03T04:55:54;6.63;;;4.85;;
55364;SDS011;41245;45.384;20.390;2023-04-03T04:58:20;8.65;;;5.72;;
55364;SDS011;41245;45.384;20.390;2023-04-03T05:00:46;6.78;;;4.35;;
55364;SDS011;41245;45.384;20.390;2023-04-03T05:03:12;6.97;;;4.63;;
55364;SDS011;41245;45.384;20.390;2023-04-03T05:05:38;7.03;;;4.20;;
55364;SDS011;41245;45.384;20.390;2023-04-03T05:08:05;6.60;;;4.40;;
55364;SDS011;41245;45.384;20.390;2023-04-03T05:10:33;7.75;;;4.03;;
55364;SDS011;41245;45.384;20.390;2023-04-03T05:12:59;3.88;;;2.70;;
55364;SDS011;41245;45.384;20.390;2023-04-03T05:15:25;5.47;;;3.90;;
55364;SDS011;41245;45.384;20.390;2023-04-03T05:17:51;6.90;;;4.40;;
55364;SDS011;41245;45.384;20.390;2023-04-03T05:20:18;5.43;;;3.92;;
55364;SDS011;41245;45.384;20.390;2023-04-03T05:22:44;13.50;;;4.70;;
55364;SDS011;41245;45.384;20.390;2023-04-03T05:25:10;6.45;;;4.00;;
55364;SDS011;41245;45.384;20.390;2023-04-03T05:27:36;7.43;;;4.47;;
55364;SDS011;41245;45.384;20.390;2023-04-03T05:30:02;19.23;;;3.60;;
55364;SDS011;41245;45.384;20.390;2023-04-03T05:32:29;5.93;;;3.13;;
55364;SDS011;41245;45.384;20.390;2023-04-03T05:34:55;3.47;;;2.47;;
55364;SDS011;41245;45.384;20.390;2023-04-03T05:37:21;5.93;;;2.90;;
55364;SDS011;41245;45.384;20.390;2023-04-03T05:39:47;4.70;;;3.20;;
55364;SDS011;41245;45.384;20.390;2023-04-03T05:42:13;3.63;;;2.75;;
55364;SDS011;41245;45.384;20.390;2023-04-03T05:44:40;6.55;;;2.47;;
55364;SDS011;41245;45.384;20.390;2023-04-03T05:47:06;4.82;;;2.13;;
55364;SDS011;41245;45.384;20.390;2023-04-03T05:49:32;5.30;;;3.13;;
55364;SDS011;41245;45.384;20.390;2023-04-03T05:51:58;7.18;;;2.95;;
55364;SDS011;41245;45.384;20.390;2023-04-03T05:54:25;6.15;;;3.10;;
55364;SDS011;41245;45.384;20.390;2023-04-03T05:56:52;6.30;;;3.85;;
55364;SDS011;41245;45.384;20.390;2023-04-03T05:59:18;10.48;;;5.15;;
55364;SDS011;41245;45.384;20.390;2023-04-03T06:01:44;6.13;;;3.05;;
55364;SDS011;41245;45.384;20.390;2023-04-03T06:04:11;3.55;;;2.47;;
55364;SDS011;41245;45.384;20.390;2023-04-03T06:06:45;4.90;;;2.80;;
55364;SDS011;41245;45.384;20.390;2023-04-03T06:09:11;3.85;;;3.25;;
55364;SDS011;41245;45.384;20.390;2023-04-03T06:11:37;4.45;;;3.13;;
55364;SDS011;41245;45.384;20.390;2023-04-03T06:14:04;7.80;;;2.90;;
55364;SDS011;41245;45.384;20.390;2023-04-03T06:16:30;3.88;;;2.33;;
55364;SDS011;41245;45.384;20.390;2023-04-03T06:18:56;6.05;;;3.00;;
55364;SDS011;41245;45.384;20.390;2023-04-03T06:21:22;7.25;;;2.63;;
55364;SDS011;41245;45.384;20.390;2023-04-03T06:23:48;6.47;;;3.15;;
55364;SDS011;41245;45.384;20.390;2023-04-03T06:26:14;10.02;;;2.75;;
55364;SDS011;41245;45.384;20.390;2023-04-03T06:28:40;7.45;;;3.53;;
55364;SDS011;41245;45.384;20.390;2023-04-03T06:31:06;12.15;;;4.65;;
55364;SDS011;41245;45.384;20.390;2023-04-03T06:33:32;12.57;;;5.15;;
55364;SDS011;41245;45.384;20.390;2023-04-03T06:35:58;8.93;;;3.40;;
55364;SDS011;41245;45.384;20.390;2023-04-03T06:38:24;17.88;;;5.85;;
55364;SDS011;41245;45.384;20.390;2023-04-03T06:40:51;14.63;;;4.75;;
55364;SDS011;41245;45.384;20.390;2023-04-03T06:43:17;15.80;;;5.97;;
55364;SDS011;41245;45.384;20.390;2023-04-03T06:45:43;13.52;;;4.90;;
55364;SDS011;41245;45.384;20.390;2023-04-03T06:48:09;14.98;;;5.18;;
55364;SDS011;41245;45.384;20.390;2023-04-03T06:50:35;6.72;;;3.47;;
55364;SDS011;41245;45.384;20.390;2023-04-03T06:53:01;6.20;;;3.45;;
55364;SDS011;41245;45.384;20.390;2023-04-03T06:55:27;7.35;;;3.75;;
55364;SDS011;41245;45.384;20.390;2023-04-03T06:57:53;9.82;;;2.88;;
55364;SDS011;41245;45.384;20.390;2023-04-03T07:00:19;10.10;;;3.65;;
55364;SDS011;41245;45.384;20.390;2023-04-03T07:02:46;6.97;;;2.72;;
55364;SDS011;41245;45.384;20.390;2023-04-03T07:05:12;7.80;;;3.70;;
55364;SDS011;41245;45.384;20.390;2023-04-03T07:07:38;29.52;;;12.50;;
55364;SDS011;41245;45.384;20.390;2023-04-03T07:10:05;37.85;;;14.60;;
55364;SDS011;41245;45.384;20.390;2023-04-03T07:12:31;11.80;;;4.28;;
55364;SDS011;41245;45.384;20.390;2023-04-03T07:14:57;7.30;;;3.83;;
55364;SDS011;41245;45.384;20.390;2023-04-03T07:17:23;12.27;;;5.25;;
55364;SDS011;41245;45.384;20.390;2023-04-03T07:19:50;6.88;;;4.05;;
55364;SDS011;41245;45.384;20.390;2023-04-03T07:22:16;5.20;;;3.10;;
55364;SDS011;41245;45.384;20.390;2023-04-03T07:24:42;7.75;;;3.63;;
55364;SDS011;41245;45.384;20.390;2023-04-03T07:27:08;11.02;;;5.50;;
55364;SDS011;41245;45.384;20.390;2023-04-03T07:29:35;7.22;;;4.05;;
55364;SDS011;41245;45.384;20.390;2023-04-03T07:32:01;8.55;;;4.03;;
55364;SDS011;41245;45.384;20.390;2023-04-03T07:34:27;7.00;;;4.47;;
55364;SDS011;41245;45.384;20.390;2023-04-03T07:36:53;4.55;;;3.08;;
55364;SDS011;41245;45.384;20.390;2023-04-03T07:39:20;12.35;;;4.68;;
55364;SDS011;41245;45.384;20.390;2023-04-03T07:41:46;6.43;;;3.90;;
55364;SDS011;41245;45.384;20.390;2023-04-03T07:44:12;6.45;;;2.90;;
55364;SDS011;41245;45.384;20.390;2023-04-03T07:46:38;2.88;;;2.20;;
55364;SDS011;41245;45.384;20.390;2023-04-03T07:49:04;5.53;;;2.50;;
55364;SDS011;41245;45.384;20.390;2023-04-03T07:51:30;4.35;;;3.13;;
55364;SDS011;41245;45.384;20.390;2023-04-03T07:53:56;5.25;;;2.38;;
55364;SDS011;41245;45.384;20.390;2023-04-03T07:56:22;4.38;;;2.35;;
55364;SDS011;41245;45.384;20.390;2023-04-03T07:58:50;2.85;;;2.33;;
55364;SDS011;41245;45.384;20.390;2023-04-03T08:01:16;4.43;;;2.22;;
55364;SDS011;41245;45.384;20.390;2023-04-03T08:03:42;3.70;;;2.28;;
55364;SDS011;41245;45.384;20.390;2023-04-03T08:06:08;2.28;;;1.80;;
55364;SDS011;41245;45.384;20.390;2023-04-03T08:08:35;7.13;;;2.72;;
55364;SDS011;41245;45.384;20.390;2023-04-03T08:11:01;2.80;;;2.30;;
55364;SDS011;41245;45.384;20.390;2023-04-03T08:13:30;2.17;;;1.77;;
55364;SDS011;41245;45.384;20.390;2023-04-03T08:15:56;2.35;;;2.08;;
55364;SDS011;41245;45.384;20.390;2023-04-03T08:18:23;3.75;;;2.60;;
55364;SDS011;41245;45.384;20.390;2023-04-03T08:20:51;4.07;;;2.38;;
55364;SDS011;41245;45.384;20.390;2023-04-03T08:23:17;2.53;;;2.00;;
55364;SDS011;41245;45.384;20.390;2023-04-03T08:25:44;6.40;;;2.80;;
55364;SDS011;41245;45.384;20.390;2023-04-03T08:28:10;3.05;;;2.25;;
55364;SDS011;41245;45.384;20.390;2023-04-03T08:30:38;2.38;;;2.00;;
55364;SDS011;41245;45.384;20.390;2023-04-03T08:33:05;4.18;;;2.97;;
55364;SDS011;41245;45.384;20.390;2023-04-03T08:35:31;5.70;;;3.30;;
55364;SDS011;41245;45.384;20.390;2023-04-03T08:37:57;3.42;;;2.67;;
55364;SDS011;41245;45.384;20.390;2023-04-03T08:40:23;3.03;;;2.28;;
55364;SDS011;41245;45.384;20.390;2023-04-03T08:42:51;2.40;;;1.80;;
55364;SDS011;41245;45.384;20.390;2023-04-03T08:50:16;5.05;;;3.03;;
55364;SDS011;41245;45.384;20.390;2023-04-03T08:52:44;7.40;;;3.05;;
55364;SDS011;41245;45.384;20.390;2023-04-03T08:55:19;7.40;;;3.45;;
55364;SDS011;41245;45.384;20.390;2023-04-03T08:57:48;3.97;;;2.88;;
55364;SDS011;41245;45.384;20.390;2023-04-03T09:00:16;3.28;;;2.40;;
55364;SDS011;41245;45.384;20.390;2023-04-03T09:02:44;5.93;;;2.42;;
55364;SDS011;41245;45.384;20.390;2023-04-03T09:05:16;7.32;;;2.60;;
55364;SDS011;41245;45.384;20.390;2023-04-03T09:07:44;5.10;;;1.80;;
55364;SDS011;41245;45.384;20.390;2023-04-03T09:10:12;8.15;;;3.00;;
55364;SDS011;41245;45.384;20.390;2023-04-03T09:12:42;6.82;;;2.08;;
55364;SDS011;41245;45.384;20.390;2023-04-03T09:15:14;4.82;;;2.92;;
55364;SDS011;41245;45.384;20.390;2023-04-03T09:20:22;10.37;;;2.03;;
55364;SDS011;41245;45.384;20.390;2023-04-03T09:22:51;3.63;;;2.40;;
55364;SDS011;41245;45.384;20.390;2023-04-03T09:25:37;4.55;;;2.50;;
55364;SDS011;41245;45.384;20.390;2023-04-03T09:28:04;5.93;;;2.95;;
55364;SDS011;41245;45.384;20.390;2023-04-03T09:30:34;4.88;;;2.95;;
55364;SDS011;41245;45.384;20.390;2023-04-03T09:33:00;7.28;;;3.75;;
55364;SDS011;41245;45.384;20.390;2023-04-03T09:37:53;8.75;;;3.63;;
55364;SDS011;41245;45.384;20.390;2023-04-03T09:42:51;5.80;;;2.75;;
55364;SDS011;41245;45.384;20.390;2023-04-03T09:45:29;7.75;;;4.13;;
55364;SDS011;41245;45.384;20.390;2023-04-03T09:50:32;8.85;;;3.50;;
55364;SDS011;41245;45.384;20.390;2023-04-03T09:52:59;4.00;;;2.47;;
55364;SDS011;41245;45.384;20.390;2023-04-03T09:55:29;6.82;;;2.95;;
55364;SDS011;41245;45.384;20.390;2023-04-03T09:57:57;2.47;;;1.90;;
55364;SDS011;41245;45.384;20.390;2023-04-03T10:00:25;3.17;;;1.67;;
55364;SDS011;41245;45.384;20.390;2023-04-03T10:02:54;3.08;;;1.90;;
55364;SDS011;41245;45.384;20.390;2023-04-03T10:05:34;6.63;;;2.30;;
55364;SDS011;41245;45.384;20.390;2023-04-03T10:10:42;2.42;;;2.17;;
55364;SDS011;41245;45.384;20.390;2023-04-03T10:15:46;3.42;;;2.35;;
55364;SDS011;41245;45.384;20.390;2023-04-03T10:18:38;2.05;;;1.73;;
55364;SDS011;41245;45.384;20.390;2023-04-03T10:23:44;4.75;;;2.70;;
55364;SDS011;41245;45.384;20.390;2023-04-03T10:26:32;2.10;;;1.60;;
55364;SDS011;41245;45.384;20.390;2023-04-03T10:37:18;2.78;;;2.00;;
55364;SDS011;41245;45.384;20.390;2023-04-03T10:42:25;7.05;;;3.03;;
55364;SDS011;41245;45.384;20.390;2023-04-03T10:58:35;2.55;;;1.48;;
55364;SDS011;41245;45.384;20.390;2023-04-03T11:01:01;6.90;;;2.55;;
55364;SDS011;41245;45.384;20.390;2023-04-03T11:03:32;3.13;;;2.23;;
55364;SDS011;41245;45.384;20.390;2023-04-03T11:06:01;1.88;;;1.52;;
55364;SDS011;41245;45.384;20.390;2023-04-03T11:11:41;2.42;;;1.60;;
55364;SDS011;41245;45.384;20.390;2023-04-03T11:16:36;5.63;;;1.95;;
55364;SDS011;41245;45.384;20.390;2023-04-03T11:19:20;6.05;;;2.42;;
55364;SDS011;41245;45.384;20.390;2023-04-03T11:22:01;6.20;;;2.58;;
55364;SDS011;41245;45.384;20.390;2023-04-03T11:24:29;3.70;;;2.20;;
55364;SDS011;41245;45.384;20.390;2023-04-03T11:26:57;3.03;;;2.07;;
55364;SDS011;41245;45.384;20.390;2023-04-03T11:29:29;6.32;;;3.13;;
55364;SDS011;41245;45.384;20.390;2023-04-03T11:36:50;3.53;;;2.60;;
55364;SDS011;41245;45.384;20.390;2023-04-03T11:41:43;3.33;;;2.25;;
55364;SDS011;41245;45.384;20.390;2023-04-03T11:46:54;3.72;;;2.17;;
55364;SDS011;41245;45.384;20.390;2023-04-03T11:52:55;2.63;;;1.58;;
55364;SDS011;41245;45.384;20.390;2023-04-03T11:54:52;3.58;;;2.20;;
55364;SDS011;41245;45.384;20.390;2023-04-03T11:57:22;3.63;;;2.65;;
55364;SDS011;41245;45.384;20.390;2023-04-03T12:02:52;2.40;;;1.77;;
55364;SDS011;41245;45.384;20.390;2023-04-03T12:05:26;2.70;;;1.85;;
55364;SDS011;41245;45.384;20.390;2023-04-03T12:10:38;4.38;;;1.45;;
55364;SDS011;41245;45.384;20.390;2023-04-03T12:13:12;2.53;;;1.35;;
55364;SDS011;41245;45.384;20.390;2023-04-03T12:20:56;3.75;;;1.77;;
55364;SDS011;41245;45.384;20.390;2023-04-03T12:23:24;1.33;;;1.23;;
55364;SDS011;41245;45.384;20.390;2023-04-03T12:25:51;2.78;;;1.00;;
55364;SDS011;41245;45.384;20.390;2023-04-03T12:28:17;12.23;;;2.05;;
55364;SDS011;41245;45.384;20.390;2023-04-03T12:30:43;5.40;;;1.88;;
55364;SDS011;41245;45.384;20.390;2023-04-03T12:33:17;6.05;;;1.38;;
55364;SDS011;41245;45.384;20.390;2023-04-03T12:46:14;3.90;;;2.05;;
55364;SDS011;41245;45.384;20.390;2023-04-03T12:51:21;5.07;;;2.37;;
55364;SDS011;41245;45.384;20.390;2023-04-03T12:53:48;8.02;;;1.50;;
55364;SDS011;41245;45.384;20.390;2023-04-03T12:56:20;4.40;;;2.10;;
55364;SDS011;41245;45.384;20.390;2023-04-03T12:58:46;2.13;;;1.83;;
55364;SDS011;41245;45.384;20.390;2023-04-03T13:01:23;2.13;;;1.92;;
55364;SDS011;41245;45.384;20.390;2023-04-03T13:03:56;5.10;;;1.92;;
55364;SDS011;41245;45.384;20.390;2023-04-03T13:06:24;2.97;;;2.08;;
55364;SDS011;41245;45.384;20.390;2023-04-03T13:08:51;1.20;;;1.10;;
55364;SDS011;41245;45.384;20.390;2023-04-03T13:11:17;2.63;;;1.52;;
55364;SDS011;41245;45.384;20.390;2023-04-03T13:13:55;3.28;;;1.77;;
55364;SDS011;41245;45.384;20.390;2023-04-03T13:16:21;1.48;;;1.30;;
55364;SDS011;41245;45.384;20.390;2023-04-03T13:18:51;4.15;;;2.83;;
55364;SDS011;41245;45.384;20.390;2023-04-03T13:21:25;3.85;;;2.17;;
55364;SDS011;41245;45.384;20.390;2023-04-03T13:23:53;1.58;;;1.15;;
55364;SDS011;41245;45.384;20.390;2023-04-03T13:26:21;5.72;;;2.10;;
55364;SDS011;41245;45.384;20.390;2023-04-03T13:28:47;3.55;;;2.63;;
55364;SDS011;41245;45.384;20.390;2023-04-03T13:31:47;4.00;;;1.88;;
55364;SDS011;41245;45.384;20.390;2023-04-03T13:34:10;5.13;;;2.03;;
55364;SDS011;41245;45.384;20.390;2023-04-03T13:36:39;5.97;;;2.55;;
55364;SDS011;41245;45.384;20.390;2023-04-03T13:41:42;3.95;;;2.10;;
55364;SDS011;41245;45.384;20.390;2023-04-03T13:46:46;2.60;;;2.10;;
55364;SDS011;41245;45.384;20.390;2023-04-03T13:51:49;4.72;;;2.03;;
55364;SDS011;41245;45.384;20.390;2023-04-03T13:54:22;2.95;;;2.20;;
55364;SDS011;41245;45.384;20.390;2023-04-03T13:56:55;3.40;;;1.98;;
55364;SDS011;41245;45.384;20.390;2023-04-03T13:59:23;3.40;;;2.20;;
55364;SDS011;41245;45.384;20.390;2023-04-03T14:04:18;4.10;;;2.20;;
55364;SDS011;41245;45.384;20.390;2023-04-03T14:06:44;6.70;;;1.83;;
55364;SDS011;41245;45.384;20.390;2023-04-03T14:09:10;16.20;;;1.80;;
55364;SDS011;41245;45.384;20.390;2023-04-03T14:11:36;7.88;;;3.25;;
55364;SDS011;41245;45.384;20.390;2023-04-03T14:14:05;5.50;;;3.50;;
55364;SDS011;41245;45.384;20.390;2023-04-03T14:16:38;4.55;;;2.03;;
55364;SDS011;41245;45.384;20.390;2023-04-03T14:19:06;2.67;;;1.70;;
55364;SDS011;41245;45.384;20.390;2023-04-03T14:21:39;7.35;;;4.32;;
55364;SDS011;41245;45.384;20.390;2023-04-03T14:24:05;2.97;;;2.35;;
55364;SDS011;41245;45.384;20.390;2023-04-03T14:26:31;3.50;;;2.03;;
55364;SDS011;41245;45.384;20.390;2023-04-03T14:28:57;3.45;;;1.83;;
55364;SDS011;41245;45.384;20.390;2023-04-03T14:31:22;5.45;;;3.55;;
55364;SDS011;41245;45.384;20.390;2023-04-03T14:33:48;3.35;;;2.38;;
55364;SDS011;41245;45.384;20.390;2023-04-03T14:36:14;8.18;;;2.50;;
55364;SDS011;41245;45.384;20.390;2023-04-03T14:38:43;5.47;;;1.63;;
55364;SDS011;41245;45.384;20.390;2023-04-03T14:41:13;2.67;;;1.67;;
55364;SDS011;41245;45.384;20.390;2023-04-03T14:43:40;3.90;;;2.05;;
55364;SDS011;41245;45.384;20.390;2023-04-03T14:46:41;1.00;;;0.93;;
55364;SDS011;41245;45.384;20.390;2023-04-03T14:49:03;1.35;;;1.25;;
55364;SDS011;41245;45.384;20.390;2023-04-03T14:51:34;5.43;;;1.50;;
55364;SDS011;41245;45.384;20.390;2023-04-03T14:54:02;4.07;;;2.40;;
55364;SDS011;41245;45.384;20.390;2023-04-03T14:56:30;6.63;;;2.05;;
55364;SDS011;41245;45.384;20.390;2023-04-03T14:58:57;2.90;;;2.00;;
55364;SDS011;41245;45.384;20.390;2023-04-03T15:01:25;3.33;;;1.60;;
55364;SDS011;41245;45.384;20.390;2023-04-03T15:03:51;2.75;;;1.40;;
55364;SDS011;41245;45.384;20.390;2023-04-03T15:06:16;4.45;;;1.40;;
55364;SDS011;41245;45.384;20.390;2023-04-03T15:08:42;4.82;;;1.38;;
55364;SDS011;41245;45.384;20.390;2023-04-03T15:11:09;1.75;;;0.90;;
55364;SDS011;41245;45.384;20.390;2023-04-03T15:13:35;1.33;;;1.00;;
55364;SDS011;41245;45.384;20.390;2023-04-03T15:16:02;5.22;;;1.13;;
55364;SDS011;41245;45.384;20.390;2023-04-03T15:18:29;2.50;;;1.45;;
55364;SDS011;41245;45.384;20.390;2023-04-03T15:20:59;2.22;;;1.80;;
55364;SDS011;41245;45.384;20.390;2023-04-03T15:23:25;1.65;;;1.30;;
55364;SDS011;41245;45.384;20.390;2023-04-03T15:25:51;2.53;;;2.03;;
55364;SDS011;41245;45.384;20.390;2023-04-03T15:28:28;3.38;;;2.22;;
55364;SDS011;41245;45.384;20.390;2023-04-03T15:30:58;3.90;;;2.08;;
55364;SDS011;41245;45.384;20.390;2023-04-03T15:33:24;7.80;;;2.25;;
55364;SDS011;41245;45.384;20.390;2023-04-03T15:35:50;9.82;;;1.77;;
55364;SDS011;41245;45.384;20.390;2023-04-03T15:38:16;5.85;;;3.30;;
55364;SDS011;41245;45.384;20.390;2023-04-03T15:40:42;7.22;;;2.50;;
55364;SDS011;41245;45.384;20.390;2023-04-03T15:43:08;3.63;;;2.17;;
55364;SDS011;41245;45.384;20.390;2023-04-03T15:45:35;11.88;;;5.45;;
55364;SDS011;41245;45.384;20.390;2023-04-03T15:48:02;2.67;;;1.98;;
55364;SDS011;41245;45.384;20.390;2023-04-03T15:50:30;4.03;;;1.63;;
55364;SDS011;41245;45.384;20.390;2023-04-03T15:52:56;3.05;;;1.63;;
55364;SDS011;41245;45.384;20.390;2023-04-03T15:55:26;4.43;;;2.30;;
55364;SDS011;41245;45.384;20.390;2023-04-03T16:00:19;4.15;;;1.98;;
55364;SDS011;41245;45.384;20.390;2023-04-03T16:02:46;2.30;;;1.95;;
55364;SDS011;41245;45.384;20.390;2023-04-03T16:05:13;5.05;;;3.28;;
55364;SDS011;41245;45.384;20.390;2023-04-03T16:07:42;6.97;;;4.00;;
55364;SDS011;41245;45.384;20.390;2023-04-03T16:10:09;4.30;;;2.83;;
55364;SDS011;41245;45.384;20.390;2023-04-03T16:12:36;5.97;;;2.05;;
55364;SDS011;41245;45.384;20.390;2023-04-03T16:15:02;2.15;;;1.38;;
55364;SDS011;41245;45.384;20.390;2023-04-03T16:17:29;3.20;;;2.33;;
55364;SDS011;41245;45.384;20.390;2023-04-03T16:19:56;5.97;;;1.67;;
55364;SDS011;41245;45.384;20.390;2023-04-03T16:22:21;6.65;;;1.70;;
55364;SDS011;41245;45.384;20.390;2023-04-03T16:24:49;1.48;;;1.10;;